createdAt,value
2017-12-03T00:00:52.860Z,87.20
2017-12-03T00:01:52.847Z,85.80
2017-12-03T00:02:52.863Z,87.30
2017-12-03T00:03:52.870Z,88.50
2017-12-03T00:04:52.888Z,89.30
2017-12-03T00:05:52.902Z,85.70
2017-12-03T00:06:52.914Z,90.40
2017-12-03T00:07:52.926Z,89.80
2017-12-03T00:08:52.940Z,88.30
2017-12-03T00:09:52.963Z,85.60
2017-12-03T00:10:52.984Z,89.90
2017-12-03T00:11:52.979Z,87.70
2017-12-03T00:12:52.989Z,91.10
2017-12-03T00:13:53.010Z,87.90
2017-12-03T00:14:53.022Z,87.90
2017-12-03T00:15:53.041Z,88.00
2017-12-03T00:16:53.051Z,87.60
2017-12-03T00:17:53.064Z,89.10
2017-12-03T00:18:53.121Z,89.10
2017-12-03T00:19:53.092Z,88.40
2017-12-03T00:20:53.106Z,89.80
2017-12-03T00:21:53.118Z,90.10
2017-12-03T00:22:53.134Z,89.80
2017-12-03T00:23:53.148Z,88.40
2017-12-03T00:24:53.160Z,89.60
2017-12-03T00:25:53.175Z,91.60
2017-12-03T00:26:53.188Z,88.70
2017-12-03T00:27:53.200Z,84.00
2017-12-03T00:28:53.216Z,88.80
2017-12-03T00:29:53.225Z,87.70
2017-12-03T00:30:53.243Z,86.50
2017-12-03T00:31:53.264Z,88.90
2017-12-03T00:32:53.299Z,91.40
2017-12-03T00:33:53.285Z,87.60
2017-12-03T00:34:53.359Z,87.60
2017-12-03T00:35:53.312Z,91.70
2017-12-03T00:36:53.332Z,88.90
2017-12-03T00:37:53.339Z,92.50
2017-12-03T00:38:53.352Z,90.60
2017-12-03T00:39:53.370Z,89.50
2017-12-03T00:40:53.374Z,88.60
2017-12-03T00:41:53.417Z,87.80
2017-12-03T00:42:53.408Z,86.40
2017-12-03T00:43:53.419Z,88.90
2017-12-03T00:44:53.436Z,90.50
2017-12-03T00:45:53.454Z,85.60
2017-12-03T00:46:53.463Z,89.40
2017-12-03T00:47:53.474Z,87.60
2017-12-03T00:48:53.493Z,84.50
2017-12-03T00:49:53.502Z,84.00
2017-12-03T00:50:53.519Z,87.40
2017-12-03T00:51:53.531Z,87.10
2017-12-03T00:52:53.549Z,81.70
2017-12-03T00:53:53.553Z,83.40
2017-12-03T00:54:53.573Z,82.70
2017-12-03T00:55:53.634Z,79.30
2017-12-03T00:56:53.598Z,81.10
2017-12-03T00:57:53.649Z,84.20
2017-12-03T00:58:53.635Z,80.10
2017-12-03T00:59:53.638Z,79.60
2017-12-03T01:00:53.737Z,77.10
2017-12-03T01:01:53.667Z,78.40
2017-12-03T01:02:53.683Z,81.20
2017-12-03T01:03:53.694Z,81.10
2017-12-03T01:04:53.791Z,80.40
2017-12-03T01:05:53.720Z,76.50
2017-12-03T01:06:53.737Z,77.30
2017-12-03T01:07:53.748Z,81.60
2017-12-03T01:08:53.761Z,76.70
2017-12-03T01:09:53.776Z,75.90
2017-12-03T01:10:53.812Z,73.90
2017-12-03T01:11:53.803Z,78.50
2017-12-03T01:12:53.817Z,78.90
2017-12-03T01:13:53.832Z,73.20
2017-12-03T01:14:53.845Z,75.00
2017-12-03T01:15:53.941Z,74.30
2017-12-03T01:16:53.874Z,71.40
2017-12-03T01:17:53.888Z,74.80
2017-12-03T01:18:53.906Z,75.30
2017-12-03T01:19:53.914Z,70.20
2017-12-03T01:20:53.928Z,72.00
2017-12-03T01:21:53.968Z,73.30
2017-12-03T01:22:53.956Z,71.40
2017-12-03T01:23:53.970Z,72.90
2017-12-03T01:24:53.978Z,71.20
2017-12-03T01:25:53.999Z,69.10
2017-12-03T01:26:54.019Z,71.90
2017-12-03T01:27:54.025Z,71.60
2017-12-03T01:28:54.048Z,74.90
2017-12-03T01:29:54.054Z,75.60
2017-12-03T01:30:54.067Z,78.70
2017-12-03T01:31:54.080Z,70.40
2017-12-03T01:32:54.103Z,67.00
2017-12-03T01:33:54.110Z,69.70
2017-12-03T01:34:54.123Z,70.80
2017-12-03T01:35:54.137Z,71.70
2017-12-03T01:36:54.149Z,71.70
2017-12-03T01:37:54.163Z,72.00
2017-12-03T01:38:54.175Z,69.80
2017-12-03T01:39:54.190Z,67.40
2017-12-03T01:40:54.207Z,66.70
2017-12-03T01:41:54.219Z,66.10
2017-12-03T01:42:54.281Z,62.50
2017-12-03T01:43:54.246Z,66.30
2017-12-03T01:44:54.262Z,63.70
2017-12-03T01:45:54.273Z,64.80
2017-12-03T01:46:54.288Z,62.00
2017-12-03T01:47:54.342Z,63.00
2017-12-03T01:48:54.334Z,67.90
2017-12-03T01:49:54.334Z,66.80
2017-12-03T01:50:54.344Z,65.50
2017-12-03T01:51:54.354Z,63.00
2017-12-03T01:52:54.366Z,64.50
2017-12-03T01:53:54.385Z,62.90
2017-12-03T01:54:54.400Z,58.60
2017-12-03T01:55:54.411Z,60.20
2017-12-03T01:56:54.487Z,61.00
2017-12-03T01:57:54.448Z,61.50
2017-12-03T01:58:54.456Z,60.90
2017-12-03T01:59:54.467Z,60.90
2017-12-03T02:00:54.479Z,59.20
2017-12-03T02:01:54.501Z,57.20
2017-12-03T02:02:54.508Z,59.40
2017-12-03T02:03:54.532Z,59.70
2017-12-03T02:04:54.536Z,57.60
2017-12-03T02:05:54.560Z,60.80
2017-12-03T02:06:54.565Z,63.30
2017-12-03T02:07:54.575Z,59.40
2017-12-03T02:08:54.595Z,57.50
2017-12-03T02:09:54.605Z,58.70
2017-12-03T02:10:54.619Z,56.50
2017-12-03T02:11:54.630Z,58.00
2017-12-03T02:12:54.648Z,56.60
2017-12-03T02:13:54.700Z,55.60
2017-12-03T02:14:54.677Z,57.50
2017-12-03T02:15:54.688Z,56.60
2017-12-03T02:16:54.704Z,51.90
2017-12-03T02:17:54.714Z,55.40
2017-12-03T02:18:54.729Z,56.10
2017-12-03T02:19:54.742Z,55.30
2017-12-03T02:20:54.753Z,55.40
2017-12-03T02:21:54.806Z,54.70
2017-12-03T02:22:54.777Z,54.90
2017-12-03T02:23:54.833Z,52.60
2017-12-03T02:24:54.814Z,54.80
2017-12-03T02:25:54.825Z,53.70
2017-12-03T02:26:54.839Z,54.50
2017-12-03T02:27:54.851Z,55.00
2017-12-03T02:28:54.864Z,54.40
2017-12-03T02:29:54.879Z,53.80
2017-12-03T02:30:54.897Z,54.10
2017-12-03T02:31:54.925Z,52.00
2017-12-03T02:32:54.922Z,55.60
2017-12-03T02:33:54.933Z,50.00
2017-12-03T02:34:54.949Z,53.30
2017-12-03T02:35:54.959Z,52.60
2017-12-03T02:36:54.969Z,53.30
2017-12-03T02:37:54.988Z,55.10
2017-12-03T02:38:55.002Z,53.30
2017-12-03T02:39:55.015Z,53.20
2017-12-03T02:40:55.029Z,51.20
2017-12-03T02:41:55.045Z,53.40
2017-12-03T02:42:55.058Z,52.20
2017-12-03T02:43:55.072Z,48.90
2017-12-03T02:44:55.135Z,51.70
2017-12-03T02:45:55.097Z,51.90
2017-12-03T02:46:55.112Z,53.70
2017-12-03T02:47:55.125Z,54.90
2017-12-03T02:48:55.138Z,54.20
2017-12-03T02:49:55.151Z,50.30
2017-12-03T02:50:55.160Z,53.60
2017-12-03T02:51:55.178Z,52.30
2017-12-03T02:52:55.192Z,50.80
2017-12-03T02:53:55.208Z,51.10
2017-12-03T02:54:55.295Z,53.40
2017-12-03T02:55:55.255Z,49.70
2017-12-03T02:56:55.247Z,53.40
2017-12-03T02:57:55.307Z,47.40
2017-12-03T02:58:55.275Z,52.00
2017-12-03T02:59:55.287Z,50.50
2017-12-03T03:00:55.345Z,50.60
2017-12-03T03:01:55.311Z,49.30
2017-12-03T03:02:55.328Z,51.30
2017-12-03T03:03:55.341Z,52.10
2017-12-03T03:04:55.352Z,51.20
2017-12-03T03:05:55.369Z,52.40
2017-12-03T03:06:55.382Z,47.90
2017-12-03T03:07:55.397Z,50.60
2017-12-03T03:08:55.407Z,49.70
2017-12-03T03:09:55.428Z,49.60
2017-12-03T03:10:55.442Z,51.20
2017-12-03T03:11:55.450Z,47.00
2017-12-03T03:12:55.502Z,50.70
2017-12-03T03:13:55.477Z,46.60
2017-12-03T03:14:55.491Z,48.80
2017-12-03T03:15:55.505Z,48.00
2017-12-03T03:16:55.553Z,49.70
2017-12-03T03:17:55.532Z,46.70
2017-12-03T03:18:55.549Z,49.10
2017-12-03T03:19:55.561Z,47.90
2017-12-03T03:20:55.574Z,46.70
2017-12-03T03:21:55.587Z,47.30
2017-12-03T03:22:55.600Z,48.70
2017-12-03T03:23:55.615Z,48.90
2017-12-03T03:24:55.632Z,45.70
2017-12-03T03:25:55.643Z,47.00
2017-12-03T03:26:55.658Z,44.80
2017-12-03T03:27:55.669Z,45.00
2017-12-03T03:28:55.712Z,46.00
2017-12-03T03:29:55.724Z,43.80
2017-12-03T03:30:55.713Z,44.80
2017-12-03T03:31:55.724Z,46.00
2017-12-03T03:32:55.739Z,43.90
2017-12-03T03:33:55.749Z,45.10
2017-12-03T03:34:55.764Z,46.00
2017-12-03T03:35:55.780Z,42.40
2017-12-03T03:36:55.795Z,45.00
2017-12-03T03:37:55.805Z,44.00
2017-12-03T03:38:55.821Z,42.60
2017-12-03T03:39:55.832Z,44.40
2017-12-03T03:40:55.846Z,43.60
2017-12-03T03:41:55.860Z,42.80
2017-12-03T03:42:55.874Z,44.60
2017-12-03T03:43:55.886Z,39.90
2017-12-03T03:44:55.900Z,44.50
2017-12-03T03:45:55.914Z,42.30
2017-12-03T03:46:55.923Z,44.20
2017-12-03T03:47:55.941Z,42.90
2017-12-03T03:48:55.955Z,45.00
2017-12-03T03:49:55.969Z,42.70
2017-12-03T03:50:55.982Z,43.40
2017-12-03T03:51:56.007Z,44.60
2017-12-03T03:52:56.009Z,42.20
2017-12-03T03:53:56.025Z,45.80
2017-12-03T03:54:56.047Z,41.60
2017-12-03T03:55:56.049Z,44.70
2017-12-03T03:56:56.067Z,44.70
2017-12-03T03:57:56.091Z,46.10
2017-12-03T03:58:56.095Z,41.40
2017-12-03T03:59:56.105Z,41.90
2017-12-03T04:00:56.143Z,41.60
2017-12-03T04:01:56.133Z,41.10
2017-12-03T04:02:56.146Z,42.70
2017-12-03T04:03:56.162Z,40.10
2017-12-03T04:04:56.175Z,41.60
2017-12-03T04:05:56.189Z,41.80
2017-12-03T04:06:56.202Z,41.40
2017-12-03T04:07:56.218Z,41.80
2017-12-03T04:08:56.230Z,41.80
2017-12-03T04:09:56.276Z,42.40
2017-12-03T04:10:56.274Z,42.10
2017-12-03T04:11:56.266Z,41.30
2017-12-03T04:12:56.285Z,42.80
2017-12-03T04:13:56.298Z,39.70
2017-12-03T04:14:56.327Z,38.30
2017-12-03T04:15:56.326Z,42.20
2017-12-03T04:16:56.394Z,40.90
2017-12-03T04:17:56.355Z,40.90
2017-12-03T04:18:56.397Z,41.40
2017-12-03T04:19:56.380Z,41.10
2017-12-03T04:20:56.394Z,41.70
2017-12-03T04:21:56.408Z,40.60
2017-12-03T04:22:56.422Z,39.40
2017-12-03T04:23:56.441Z,41.10
2017-12-03T04:24:56.454Z,39.70
2017-12-03T04:25:56.460Z,39.00
2017-12-03T04:26:56.477Z,38.20
2017-12-03T04:27:56.492Z,38.90
2017-12-03T04:28:56.503Z,38.20
2017-12-03T04:29:56.519Z,36.40
2017-12-03T04:30:56.532Z,37.20
2017-12-03T04:31:56.545Z,39.80
2017-12-03T04:32:56.561Z,37.20
2017-12-03T04:33:56.574Z,35.70
2017-12-03T04:34:56.589Z,36.80
2017-12-03T04:35:56.598Z,39.50
2017-12-03T04:36:56.617Z,38.40
2017-12-03T04:37:56.628Z,39.60
2017-12-03T04:38:56.642Z,35.90
2017-12-03T04:39:56.655Z,38.70
2017-12-03T04:40:56.668Z,39.10
2017-12-03T04:41:56.677Z,37.20
2017-12-03T04:42:56.696Z,37.40
2017-12-03T04:43:56.752Z,36.80
2017-12-03T04:44:56.725Z,35.40
2017-12-03T04:45:56.741Z,38.50
2017-12-03T04:46:56.749Z,37.90
2017-12-03T04:47:56.790Z,36.70
2017-12-03T04:48:56.782Z,35.80
2017-12-03T04:49:56.792Z,36.90
2017-12-03T04:50:56.806Z,38.40
2017-12-03T04:51:56.821Z,36.90
2017-12-03T04:52:56.835Z,36.10
2017-12-03T04:53:56.849Z,36.50
2017-12-03T04:54:56.864Z,35.70
2017-12-03T04:55:56.875Z,35.60
2017-12-03T04:56:56.892Z,35.30
2017-12-03T04:57:56.903Z,33.80
2017-12-03T04:58:56.912Z,35.40
2017-12-03T04:59:56.931Z,35.40
2017-12-03T05:00:56.970Z,35.60
2017-12-03T05:01:56.958Z,34.10
2017-12-03T05:02:56.978Z,36.00
2017-12-03T05:03:56.986Z,35.80
2017-12-03T05:04:57.011Z,34.30
2017-12-03T05:05:57.062Z,35.20
2017-12-03T05:06:57.026Z,38.10
2017-12-03T05:07:57.041Z,37.60
2017-12-03T05:08:57.055Z,36.30
2017-12-03T05:09:57.068Z,32.80
2017-12-03T05:10:57.083Z,34.20
2017-12-03T05:11:57.113Z,33.70
2017-12-03T05:12:57.110Z,35.20
2017-12-03T05:13:57.122Z,35.50
2017-12-03T05:14:57.138Z,36.70
2017-12-03T05:15:57.171Z,34.80
2017-12-03T05:16:57.210Z,35.20
2017-12-03T05:17:57.195Z,36.40
2017-12-03T05:18:57.214Z,36.50
2017-12-03T05:19:57.206Z,35.50
2017-12-03T05:20:57.220Z,36.80
2017-12-03T05:21:57.233Z,37.30
2017-12-03T05:22:57.250Z,35.20
2017-12-03T05:23:57.261Z,38.20
2017-12-03T05:24:57.274Z,36.10
2017-12-03T05:25:57.288Z,35.30
2017-12-03T05:26:57.301Z,34.60
2017-12-03T05:27:57.314Z,33.70
2017-12-03T05:28:57.330Z,36.30
2017-12-03T05:29:57.343Z,34.20
2017-12-03T05:30:57.350Z,35.30
2017-12-03T05:31:57.371Z,36.20
2017-12-03T05:32:57.386Z,33.70
2017-12-03T05:33:57.461Z,36.00
2017-12-03T05:34:57.415Z,35.20
2017-12-03T05:35:57.427Z,33.00
2017-12-03T05:36:57.442Z,37.80
2017-12-03T05:37:57.454Z,35.40
2017-12-03T05:38:57.473Z,34.70
2017-12-03T05:39:57.485Z,34.10
2017-12-03T05:40:57.499Z,33.40
2017-12-03T05:41:57.509Z,39.30
2017-12-03T05:42:57.524Z,34.80
2017-12-03T05:43:57.537Z,36.40
2017-12-03T05:44:57.556Z,34.10
2017-12-03T05:45:57.564Z,37.30
2017-12-03T05:46:57.579Z,36.60
2017-12-03T05:47:57.593Z,34.00
2017-12-03T05:48:57.607Z,32.90
2017-12-03T05:49:57.627Z,34.40
2017-12-03T05:50:57.638Z,35.20
2017-12-03T05:51:57.659Z,35.40
2017-12-03T05:52:57.658Z,39.70
2017-12-03T05:53:57.727Z,35.50
2017-12-03T05:54:57.706Z,36.30
2017-12-03T05:55:57.707Z,35.50
2017-12-03T05:56:57.718Z,35.90
2017-12-03T05:57:57.744Z,36.60
2017-12-03T05:58:57.746Z,36.00
2017-12-03T05:59:57.759Z,36.30
2017-12-03T06:00:57.772Z,36.80
2017-12-03T06:01:57.841Z,36.70
2017-12-03T06:02:57.821Z,37.20
2017-12-03T06:03:57.818Z,36.40
2017-12-03T06:04:57.829Z,36.60
2017-12-03T06:05:57.842Z,34.30
2017-12-03T06:06:57.853Z,36.00
2017-12-03T06:07:57.872Z,35.40
2017-12-03T06:08:57.887Z,36.60
2017-12-03T06:09:57.925Z,35.30
2017-12-03T06:10:57.912Z,36.20
2017-12-03T06:11:57.925Z,36.80
2017-12-03T06:12:57.941Z,34.80
2017-12-03T06:13:57.949Z,35.70
2017-12-03T06:14:57.968Z,37.30
2017-12-03T06:15:57.980Z,37.50
2017-12-03T06:16:57.996Z,36.70
2017-12-03T06:17:58.009Z,35.60
2017-12-03T06:18:58.023Z,34.90
2017-12-03T06:19:58.047Z,36.50
2017-12-03T06:20:58.051Z,36.10
2017-12-03T06:21:58.067Z,35.60
2017-12-03T06:22:58.079Z,36.60
2017-12-03T06:23:58.091Z,40.00
2017-12-03T06:24:58.109Z,37.80
2017-12-03T06:25:58.118Z,35.30
2017-12-03T06:26:58.129Z,33.70
2017-12-03T06:27:58.153Z,37.20
2017-12-03T06:28:58.176Z,37.20
2017-12-03T06:29:58.177Z,36.70
2017-12-03T06:30:58.192Z,35.50
2017-12-03T06:31:58.204Z,36.10
2017-12-03T06:32:58.218Z,37.30
2017-12-03T06:33:58.232Z,36.50
2017-12-03T06:34:58.246Z,35.60
2017-12-03T06:35:58.258Z,36.30
2017-12-03T06:36:58.281Z,38.90
2017-12-03T06:37:58.287Z,39.10
2017-12-03T06:38:58.304Z,35.90
2017-12-03T06:39:58.337Z,38.50
2017-12-03T06:40:58.332Z,38.80
2017-12-03T06:41:58.340Z,37.60
2017-12-03T06:42:58.357Z,37.70
2017-12-03T06:43:58.369Z,38.00
2017-12-03T06:44:58.383Z,36.70
2017-12-03T06:45:58.397Z,37.20
2017-12-03T06:46:58.412Z,37.60
2017-12-03T06:47:58.425Z,36.00
2017-12-03T06:48:58.440Z,37.80
2017-12-03T06:49:58.464Z,39.60
2017-12-03T06:50:58.467Z,39.40
2017-12-03T06:51:58.479Z,36.70
2017-12-03T06:52:58.491Z,36.80
2017-12-03T06:53:58.508Z,38.80
2017-12-03T06:54:58.538Z,36.90
2017-12-03T06:55:58.534Z,36.20
2017-12-03T06:56:58.549Z,38.70
2017-12-03T06:57:58.563Z,35.40
2017-12-03T06:58:58.577Z,38.40
2017-12-03T06:59:58.592Z,38.10
2017-12-03T07:00:58.608Z,36.60
2017-12-03T07:01:58.617Z,38.30
2017-12-03T07:02:58.634Z,38.60
2017-12-03T07:03:58.647Z,38.80
2017-12-03T07:04:58.661Z,38.00
2017-12-03T07:05:58.675Z,37.30
2017-12-03T07:06:58.690Z,38.60
2017-12-03T07:07:58.702Z,38.20
2017-12-03T07:08:58.713Z,37.40
2017-12-03T07:09:58.731Z,37.90
2017-12-03T07:10:58.762Z,40.20
2017-12-03T07:11:58.754Z,38.60
2017-12-03T07:12:58.771Z,35.90
2017-12-03T07:13:58.786Z,38.60
2017-12-03T07:14:58.819Z,39.30
2017-12-03T07:15:58.814Z,37.70
2017-12-03T07:16:58.829Z,38.70
2017-12-03T07:17:58.845Z,38.30
2017-12-03T07:18:58.856Z,39.50
2017-12-03T07:19:58.867Z,37.60
2017-12-03T07:20:58.880Z,36.10
2017-12-03T07:21:58.951Z,34.80
2017-12-03T07:22:58.929Z,38.00
2017-12-03T07:23:58.944Z,34.80
2017-12-03T07:24:58.937Z,34.80
2017-12-03T07:25:58.965Z,37.30
2017-12-03T07:26:58.967Z,40.60
2017-12-03T07:27:58.979Z,39.10
2017-12-03T07:28:58.991Z,35.70
2017-12-03T07:29:59.007Z,36.90
2017-12-03T07:30:59.022Z,35.90
2017-12-03T07:31:59.035Z,40.40
2017-12-03T07:32:59.054Z,38.20
2017-12-03T07:33:59.062Z,37.90
2017-12-03T07:34:59.086Z,36.70
2017-12-03T07:35:59.084Z,37.40
2017-12-03T07:36:59.113Z,36.10
2017-12-03T07:37:59.117Z,35.50
2017-12-03T07:38:59.132Z,40.10
2017-12-03T07:39:59.146Z,38.90
2017-12-03T07:40:59.157Z,36.40
2017-12-03T07:41:59.181Z,37.40
2017-12-03T07:42:59.188Z,37.10
2017-12-03T07:43:59.200Z,40.20
2017-12-03T07:44:59.231Z,38.60
2017-12-03T07:45:59.229Z,38.30
2017-12-03T07:46:59.249Z,36.70
2017-12-03T07:47:59.286Z,39.70
2017-12-03T07:48:59.272Z,37.90
2017-12-03T07:49:59.283Z,37.70
2017-12-03T07:50:59.298Z,39.80
2017-12-03T07:51:59.313Z,38.40
2017-12-03T07:52:59.329Z,37.90
2017-12-03T07:53:59.340Z,39.40
2017-12-03T07:54:59.354Z,38.30
2017-12-03T07:55:59.360Z,37.60
2017-12-03T07:56:59.381Z,37.90
2017-12-03T07:57:59.394Z,38.00
2017-12-03T07:58:59.410Z,38.50
2017-12-03T07:59:59.423Z,40.70
2017-12-03T08:00:59.437Z,37.70
2017-12-03T08:01:59.451Z,38.20
2017-12-03T08:02:59.467Z,41.00
2017-12-03T08:03:59.483Z,37.00
2017-12-03T08:04:59.549Z,36.70
2017-12-03T08:05:59.524Z,40.00
2017-12-03T08:06:59.535Z,38.30
2017-12-03T08:07:59.535Z,39.50
2017-12-03T08:08:59.552Z,39.10
2017-12-03T08:09:59.567Z,37.80
2017-12-03T08:10:59.578Z,39.10
2017-12-03T08:11:59.588Z,38.40
2017-12-03T08:12:59.605Z,39.60
2017-12-03T08:13:59.638Z,39.70
2017-12-03T08:14:59.638Z,40.70
2017-12-03T08:15:59.683Z,39.00
2017-12-03T08:16:59.685Z,36.70
2017-12-03T08:17:59.676Z,36.70
2017-12-03T08:18:59.704Z,37.20
2017-12-03T08:19:59.704Z,38.00
2017-12-03T08:20:59.770Z,35.60
2017-12-03T08:21:59.731Z,37.60
2017-12-03T08:22:59.743Z,37.60
2017-12-03T08:23:59.758Z,37.40
2017-12-03T08:24:59.774Z,38.40
2017-12-03T08:25:59.787Z,38.70
2017-12-03T08:26:59.803Z,38.40
2017-12-03T08:27:59.815Z,37.70
2017-12-03T08:28:59.833Z,38.90
2017-12-03T08:29:59.910Z,35.60
2017-12-03T08:30:59.853Z,36.10
2017-12-03T08:31:59.870Z,38.30
2017-12-03T08:32:59.883Z,35.50
2017-12-03T08:33:59.906Z,37.10
2017-12-03T08:34:59.914Z,33.80
2017-12-03T08:35:59.927Z,36.00
2017-12-03T08:36:59.940Z,36.70
2017-12-03T08:37:59.980Z,34.10
2017-12-03T08:38:59.969Z,33.40
2017-12-03T08:40:00.006Z,34.40
2017-12-03T08:41:00.001Z,34.70
2017-12-03T08:42:00.013Z,35.20
2017-12-03T08:43:00.028Z,37.60
2017-12-03T08:44:00.041Z,34.40
2017-12-03T08:45:00.052Z,33.00
2017-12-03T08:46:00.068Z,36.10
2017-12-03T08:47:00.081Z,36.20
2017-12-03T08:48:00.091Z,35.20
2017-12-03T08:49:00.110Z,32.20
2017-12-03T08:50:00.125Z,34.00
2017-12-03T08:51:00.195Z,34.20
2017-12-03T08:52:00.147Z,32.90
2017-12-03T08:53:00.213Z,33.20
2017-12-03T08:54:00.201Z,34.70
2017-12-03T08:55:00.195Z,32.70
2017-12-03T08:56:00.233Z,32.90
2017-12-03T08:57:00.223Z,34.30
2017-12-03T08:58:00.238Z,32.70
2017-12-03T08:59:00.250Z,34.10
2017-12-03T09:00:00.263Z,32.40
2017-12-03T09:01:00.278Z,33.20
2017-12-03T09:02:00.293Z,32.70
2017-12-03T09:03:00.366Z,32.20
2017-12-03T09:04:00.346Z,32.40
2017-12-03T09:05:00.329Z,31.40
2017-12-03T09:06:00.348Z,30.50
2017-12-03T09:07:00.422Z,32.30
2017-12-03T09:08:00.405Z,32.60
2017-12-03T09:09:00.390Z,30.50
2017-12-03T09:10:00.404Z,30.80
2017-12-03T09:11:00.418Z,33.60
2017-12-03T09:12:00.431Z,32.50
2017-12-03T09:13:00.446Z,32.10
2017-12-03T09:14:00.536Z,32.50
2017-12-03T09:15:00.522Z,34.60
2017-12-03T09:16:00.517Z,34.80
2017-12-03T09:17:00.535Z,30.20
2017-12-03T09:18:00.515Z,32.10
2017-12-03T09:19:00.570Z,30.70
2017-12-03T09:20:00.545Z,31.80
2017-12-03T09:21:00.609Z,34.10
2017-12-03T09:22:00.578Z,32.50
2017-12-03T09:23:00.588Z,32.20
2017-12-03T09:24:00.600Z,33.90
2017-12-03T09:25:00.616Z,32.00
2017-12-03T09:26:00.631Z,33.70
2017-12-03T09:27:00.647Z,34.10
2017-12-03T09:28:00.705Z,33.80
2017-12-03T09:29:00.675Z,32.00
2017-12-03T09:30:00.688Z,33.10
2017-12-03T09:31:00.864Z,32.80
2017-12-03T09:32:00.715Z,32.00
2017-12-03T09:33:00.728Z,32.90
2017-12-03T09:34:00.743Z,31.50
2017-12-03T09:35:00.757Z,33.70
2017-12-03T09:36:00.771Z,33.00
2017-12-03T09:37:00.785Z,31.90
2017-12-03T09:38:00.804Z,31.50
2017-12-03T09:39:00.840Z,32.90
2017-12-03T09:40:00.825Z,33.40
2017-12-03T09:41:00.842Z,33.40
2017-12-03T09:42:00.856Z,33.40
2017-12-03T09:43:00.870Z,30.90
2017-12-03T09:44:00.885Z,32.50
2017-12-03T09:45:00.898Z,32.80
2017-12-03T09:46:00.915Z,31.90
2017-12-03T09:47:00.930Z,33.10
2017-12-03T09:48:00.936Z,34.50
2017-12-03T09:49:00.967Z,32.20
2017-12-03T09:50:00.980Z,33.50
2017-12-03T09:51:00.984Z,31.80
2017-12-03T09:52:01.049Z,33.60
2017-12-03T09:53:01.009Z,32.40
2017-12-03T09:54:01.029Z,34.10
2017-12-03T09:55:01.040Z,34.40
2017-12-03T09:56:01.047Z,35.80
2017-12-03T09:57:01.067Z,33.70
2017-12-03T09:58:01.081Z,35.30
2017-12-03T09:59:01.097Z,33.90
2017-12-03T10:00:01.125Z,36.00
2017-12-03T10:01:01.127Z,34.30
2017-12-03T10:02:01.141Z,32.20
2017-12-03T10:03:01.156Z,34.50
2017-12-03T10:04:01.169Z,34.30
2017-12-03T10:05:01.182Z,34.60
2017-12-03T10:06:01.195Z,32.40
2017-12-03T10:07:01.208Z,32.20
2017-12-03T10:08:01.221Z,33.00
2017-12-03T10:09:01.235Z,35.50
2017-12-03T10:10:01.251Z,35.80
2017-12-03T10:11:01.266Z,33.70
2017-12-03T10:12:01.312Z,34.50
2017-12-03T10:13:01.310Z,34.30
2017-12-03T10:14:01.326Z,32.80
2017-12-03T10:15:01.322Z,31.90
2017-12-03T10:16:01.335Z,35.10
2017-12-03T10:17:01.350Z,35.20
2017-12-03T10:18:01.364Z,33.20
2017-12-03T10:19:01.378Z,34.40
2017-12-03T10:20:01.415Z,34.90
2017-12-03T10:21:01.407Z,35.00
2017-12-03T10:22:01.420Z,34.20
2017-12-03T10:23:01.434Z,34.60
2017-12-03T10:24:01.462Z,34.10
2017-12-03T10:25:01.492Z,32.00
2017-12-03T10:26:01.491Z,34.50
2017-12-03T10:27:01.491Z,36.20
2017-12-03T10:28:01.503Z,33.70
2017-12-03T10:29:01.520Z,37.60
2017-12-03T10:30:01.534Z,33.70
2017-12-03T10:31:01.558Z,34.60
2017-12-03T10:32:01.565Z,34.40
2017-12-03T10:33:01.588Z,33.80
2017-12-03T10:34:01.588Z,35.00
2017-12-03T10:35:01.604Z,35.60
2017-12-03T10:36:01.617Z,35.80
2017-12-03T10:37:01.630Z,36.90
2017-12-03T10:38:01.646Z,33.40
2017-12-03T10:39:01.696Z,35.90
2017-12-03T10:40:01.673Z,36.60
2017-12-03T10:41:01.688Z,38.30
2017-12-03T10:42:01.702Z,35.10
2017-12-03T10:43:01.731Z,34.20
2017-12-03T10:44:01.725Z,35.40
2017-12-03T10:45:01.746Z,34.30
2017-12-03T10:46:01.849Z,33.90
2017-12-03T10:47:01.772Z,35.80
2017-12-03T10:48:01.789Z,35.90
2017-12-03T10:49:01.801Z,38.00
2017-12-03T10:50:01.818Z,37.50
2017-12-03T10:51:01.872Z,35.20
2017-12-03T10:52:01.844Z,36.80
2017-12-03T10:53:01.863Z,38.30
2017-12-03T10:54:01.892Z,40.10
2017-12-03T10:55:01.890Z,36.90
2017-12-03T10:56:01.900Z,39.20
2017-12-03T10:57:01.916Z,37.00
2017-12-03T10:58:01.931Z,36.80
2017-12-03T10:59:01.947Z,37.50
2017-12-03T11:00:01.958Z,35.60
2017-12-03T11:01:01.970Z,39.50
2017-12-03T11:02:02.005Z,38.90
2017-12-03T11:03:02.001Z,38.20
2017-12-03T11:04:02.024Z,36.70
2017-12-03T11:05:02.077Z,35.90
2017-12-03T11:06:02.043Z,38.30
2017-12-03T11:07:02.109Z,36.40
2017-12-03T11:08:02.072Z,41.60
2017-12-03T11:09:02.086Z,38.80
2017-12-03T11:10:02.101Z,36.80
2017-12-03T11:11:02.119Z,38.50
2017-12-03T11:12:02.129Z,38.20
2017-12-03T11:13:02.143Z,35.60
2017-12-03T11:14:02.158Z,38.20
2017-12-03T11:15:02.177Z,37.40
2017-12-03T11:16:02.180Z,36.80
2017-12-03T11:17:02.196Z,36.40
2017-12-03T11:18:02.246Z,37.50
2017-12-03T11:19:02.243Z,38.40
2017-12-03T11:20:02.245Z,35.50
2017-12-03T11:21:02.256Z,37.70
2017-12-03T11:22:02.270Z,36.40
2017-12-03T11:23:02.293Z,39.00
2017-12-03T11:24:02.300Z,38.70
2017-12-03T11:25:02.314Z,38.50
2017-12-03T11:26:02.373Z,40.50
2017-12-03T11:27:02.348Z,42.50
2017-12-03T11:28:02.355Z,38.70
2017-12-03T11:29:02.407Z,38.80
2017-12-03T11:30:02.386Z,43.80
2017-12-03T11:31:02.398Z,36.60
2017-12-03T11:32:02.412Z,38.50
2017-12-03T11:33:02.428Z,40.00
2017-12-03T11:34:02.454Z,40.20
2017-12-03T11:35:02.486Z,39.60
2017-12-03T11:36:02.471Z,37.70
2017-12-03T11:37:02.484Z,41.30
2017-12-03T11:38:02.497Z,40.60
2017-12-03T11:39:02.540Z,41.00
2017-12-03T11:40:02.530Z,43.30
2017-12-03T11:41:02.536Z,42.10
2017-12-03T11:42:02.563Z,39.10
2017-12-03T11:43:02.586Z,41.10
2017-12-03T11:44:04.223Z,39.70
2017-12-03T11:45:02.602Z,42.90
2017-12-03T11:46:02.608Z,41.90
2017-12-03T11:47:02.628Z,41.80
2017-12-03T11:48:02.642Z,41.60
2017-12-03T11:49:02.654Z,42.60
2017-12-03T11:50:02.675Z,42.10
2017-12-03T11:51:02.683Z,42.80
2017-12-03T11:52:02.695Z,45.30
2017-12-03T11:53:02.713Z,44.30
2017-12-03T11:54:02.725Z,40.20
2017-12-03T11:55:02.757Z,44.50
2017-12-03T11:56:02.772Z,40.50
2017-12-03T11:57:02.767Z,42.00
2017-12-03T11:58:02.784Z,40.80
2017-12-03T11:59:02.794Z,38.80
2017-12-03T12:00:02.808Z,38.30
2017-12-03T12:01:02.823Z,42.00
2017-12-03T12:02:02.841Z,43.20
2017-12-03T12:03:02.853Z,41.10
2017-12-03T12:04:02.879Z,36.60
2017-12-03T12:05:02.881Z,40.50
2017-12-03T12:06:02.895Z,40.90
2017-12-03T12:07:02.908Z,41.10
2017-12-03T12:08:02.928Z,39.80
2017-12-03T12:09:02.982Z,39.20
2017-12-03T12:10:02.973Z,40.50
2017-12-03T12:11:02.998Z,38.50
2017-12-03T12:12:03.001Z,41.10
2017-12-03T12:13:02.992Z,37.40
2017-12-03T12:14:03.009Z,36.80
2017-12-03T12:15:03.023Z,41.50
2017-12-03T12:16:03.039Z,40.70
2017-12-03T12:17:03.054Z,39.40
2017-12-03T12:18:03.064Z,37.90
2017-12-03T12:19:03.079Z,38.30
2017-12-03T12:20:03.091Z,35.00
2017-12-03T12:21:03.117Z,37.10
2017-12-03T12:22:03.121Z,41.90
2017-12-03T12:23:03.135Z,36.20
2017-12-03T12:24:03.145Z,35.20
2017-12-03T12:25:03.162Z,37.90
2017-12-03T12:26:03.176Z,36.20
2017-12-03T12:27:03.213Z,34.20
2017-12-03T12:28:03.263Z,32.90
2017-12-03T12:29:03.222Z,36.20
2017-12-03T12:30:03.233Z,34.60
2017-12-03T12:31:03.249Z,35.70
2017-12-03T12:32:03.289Z,37.80
2017-12-03T12:33:03.276Z,36.80
2017-12-03T12:34:03.290Z,37.40
2017-12-03T12:35:03.305Z,35.40
2017-12-03T12:36:03.318Z,37.10
2017-12-03T12:37:03.334Z,37.60
2017-12-03T12:38:03.352Z,38.20
2017-12-03T12:39:03.360Z,37.50
2017-12-03T12:40:03.379Z,37.20
2017-12-03T12:41:03.393Z,35.70
2017-12-03T12:42:03.449Z,34.70
2017-12-03T12:43:03.421Z,39.20
2017-12-03T12:44:03.433Z,37.20
2017-12-03T12:45:03.529Z,33.30
2017-12-03T12:46:03.462Z,37.30
2017-12-03T12:47:03.512Z,36.50
2017-12-03T12:48:03.491Z,36.00
2017-12-03T12:49:03.507Z,37.50
2017-12-03T12:50:03.520Z,35.40
2017-12-03T12:51:03.533Z,37.00
2017-12-03T12:52:03.572Z,37.40
2017-12-03T12:53:03.568Z,34.30